Time;durP1;ratioP1;P1;durP2;ratioP2;P2;SDS_P1;SDS_P2;PMS_P1;PMS_P2;Temp;Humidity;BMP_temperature;BMP_pressure;BME280_temperature;BME280_humidity;BME280_pressure;Samples;Min_cycle;Max_cycle;Signal;HPM_P1;HPM_P2
2021/11/20 00:02:15;;;;;;;11.18;8.63;;;;;;;9.56;95.88;101076.50;5012554;28;20104;-67
2021/11/20 00:04:42;;;;;;;12.43;9.55;;;;;;;9.76;95.23;101092.00;5012442;28;20034;-67
2021/11/20 00:07:08;;;;;;;13.80;9.55;;;;;;;9.79;94.86;101091.78;5012653;28;20587;-68
2021/11/20 00:09:34;;;;;;;15.63;9.93;;;;;;;9.74;94.57;101078.69;4994569;28;20572;-68
2021/11/20 00:12:06;;;;;;;12.10;9.30;;;;;;;9.73;95.06;101082.34;5012258;28;20026;-68
2021/11/20 00:14:32;;;;;;;13.98;9.45;;;;;;;9.79;95.03;101079.25;5011975;28;20022;-68
2021/11/20 00:17:01;;;;;;;12.13;9.45;;;;;;;9.72;95.01;101075.31;5012348;28;20489;-67
2021/11/20 00:19:28;;;;;;;13.38;9.40;;;;;;;9.74;95.36;101076.03;5012090;28;20586;-68
2021/11/20 00:22:04;;;;;;;16.08;9.75;;;;;;;9.68;95.27;101089.88;5012529;28;20112;-67
2021/11/20 00:24:34;;;;;;;13.32;9.63;;;;;;;9.71;95.14;101081.63;5011814;28;20030;-68
2021/11/20 00:27:02;;;;;;;12.43;9.77;;;;;;;9.60;96.03;101086.03;4994554;28;20029;-67
2021/11/20 00:29:39;;;;;;;11.23;8.65;;;;;;;9.60;95.96;101086.03;5011779;28;20028;-68
2021/11/20 00:32:10;;;;;;;16.13;9.48;;;;;;;9.61;95.96;101090.44;5012291;28;20356;-68
2021/11/20 00:34:39;;;;;;;13.77;9.50;;;;;;;9.55;96.24;101097.09;5011560;28;20575;-67
2021/11/20 00:37:05;;;;;;;15.95;10.45;;;;;;;9.61;95.89;101101.97;5011980;28;20041;-67
2021/11/20 00:39:33;;;;;;;13.35;9.40;;;;;;;9.59;95.73;101101.25;5010947;28;20030;-68
2021/11/20 00:41:59;;;;;;;13.85;9.30;;;;;;;9.57;96.21;101100.50;5012069;28;20025;-68
2021/11/20 00:44:25;;;;;;;11.80;9.00;;;;;;;9.62;95.75;101093.00;5011642;28;20105;-67
2021/11/20 00:46:51;;;;;;;12.75;9.77;;;;;;;9.53;96.28;101085.63;5011827;28;20038;-68
2021/11/20 00:49:18;;;;;;;14.13;9.20;;;;;;;9.61;95.65;101093.94;5010261;28;20087;-68
2021/11/20 00:51:44;;;;;;;12.32;8.73;;;;;;;9.59;95.68;101090.53;4993786;28;20698;-68
2021/11/20 00:54:10;;;;;;;12.77;8.98;;;;;;;9.61;95.74;101096.63;5011503;28;20037;-68
2021/11/20 00:56:36;;;;;;;13.73;8.73;;;;;;;9.48;96.28;101093.09;5011217;28;20045;-68
2021/11/20 00:59:03;;;;;;;11.98;9.43;;;;;;;9.45;96.53;101087.13;5011516;28;20397;-67
2021/11/20 01:01:33;;;;;;;12.95;9.43;;;;;;;9.43;96.60;101087.25;5011697;28;20045;-67
2021/11/20 01:03:58;;;;;;;14.25;9.00;;;;;;;9.41;96.83;101083.81;5011510;28;20022;-67
2021/11/20 01:06:25;;;;;;;12.32;9.57;;;;;;;9.54;96.57;101084.63;5011418;28;20025;-66
2021/11/20 01:08:52;;;;;;;14.07;10.27;;;;;;;9.48;97.05;101073.53;5011913;28;20536;-67
2021/11/20 01:11:33;;;;;;;12.80;9.60;;;;;;;9.46;96.92;101078.13;5011326;28;20046;-67
2021/11/20 01:14:02;;;;;;;12.27;8.90;;;;;;;9.49;97.44;101085.94;5011378;28;20022;-66
2021/11/20 01:16:29;;;;;;;13.68;9.82;;;;;;;9.54;96.99;101078.44;5011121;28;20501;-68
2021/11/20 01:18:57;;;;;;;13.02;9.07;;;;;;;9.54;97.28;101078.44;5011126;28;20026;-68
2021/11/20 01:21:22;;;;;;;13.00;9.57;;;;;;;9.50;97.04;101069.75;4993434;28;20474;-67
2021/11/20 01:23:49;;;;;;;15.02;9.43;;;;;;;9.51;97.47;101071.47;5010987;28;20053;-66
2021/11/20 01:26:17;;;;;;;12.82;9.27;;;;;;;9.52;97.80;101073.22;5009766;28;20060;-68
2021/11/20 01:28:45;;;;;;;14.73;10.30;;;;;;;9.50;97.79;101063.53;5010959;28;20110;-67
2021/11/20 01:31:12;;;;;;;14.23;9.68;;;;;;;9.51;97.95;101059.94;5010868;28;20025;-67
2021/11/20 01:33:40;;;;;;;11.85;9.63;;;;;;;9.51;98.12;101062.59;5010802;28;20030;-68
2021/11/20 01:36:07;;;;;;;14.82;10.10;;;;;;;9.48;98.09;101068.19;5009576;28;20026;-68
2021/11/20 01:38:34;;;;;;;13.65;10.75;;;;;;;9.47;97.87;101045.88;4990558;28;20451;-69
2021/11/20 01:41:01;;;;;;;12.25;10.07;;;;;;;9.48;98.20;101055.63;5010805;28;20026;-68
2021/11/20 01:43:27;;;;;;;15.00;10.10;;;;;;;9.48;97.81;101038.72;5010744;28;20029;-67
2021/11/20 01:45:54;;;;;;;13.02;9.82;;;;;;;9.59;97.57;101049.50;4993126;28;20030;-67
2021/11/20 01:48:58;;;;;;;14.95;10.43;;;;;;;9.56;97.96;101039.88;5010751;28;20048;-68
2021/11/20 01:51:31;;;;;;;15.75;10.30;;;;;;;9.60;97.09;101037.81;4992579;28;20042;-68
2021/11/20 01:54:34;;;;;;;13.77;10.57;;;;;;;9.64;97.33;101044.69;5010712;28;20659;-68
2021/11/20 01:57:04;;;;;;;14.13;9.93;;;;;;;9.63;97.04;101033.09;4973744;28;20045;-68
2021/11/20 02:00:12;;;;;;;13.18;10.07;;;;;;;9.62;97.01;101031.41;5010048;28;20526;-68
2021/11/20 02:02:56;;;;;;;13.23;9.82;;;;;;;9.56;96.98;101031.84;5009594;28;20084;-68
2021/11/20 02:05:31;;;;;;;13.43;11.00;;;;;;;9.58;96.86;101054.03;5010679;28;20018;-69
2021/11/20 02:08:13;;;;;;;15.65;10.13;;;;;;;9.51;96.79;101033.97;5010314;28;20021;-67
2021/11/20 02:10:56;;;;;;;15.95;11.05;;;;;;;9.56;96.59;101033.66;5010055;28;20597;-68
2021/11/20 02:13:26;;;;;;;15.38;10.50;;;;;;;9.59;96.10;101020.91;5010264;28;20025;-68
2021/11/20 02:16:03;;;;;;;16.30;10.65;;;;;;;9.74;95.29;101025.13;5010257;28;20034;-67
2021/11/20 02:18:32;;;;;;;13.57;10.50;;;;;;;9.70;95.38;101020.97;5010097;28;20406;-67
2021/11/20 02:21:10;;;;;;;13.30;10.65;;;;;;;9.62;96.00;101027.84;5010213;28;20049;-68
2021/11/20 02:23:35;;;;;;;14.73;10.25;;;;;;;9.62;95.97;101014.47;5009784;28;20502;-69
2021/11/20 02:26:02;;;;;;;13.68;10.00;;;;;;;9.70;95.49;101014.78;4992623;28;20101;-70
2021/11/20 02:28:29;;;;;;;12.60;9.90;;;;;;;9.62;95.36;101009.09;5009943;28;20037;-70
2021/11/20 02:30:56;;;;;;;12.15;9.70;;;;;;;9.66;95.47;101013.28;5010037;28;20034;-70
2021/11/20 02:33:27;;;;;;;15.43;10.90;;;;;;;9.66;94.93;101013.28;5010373;28;20092;-70
2021/11/20 02:36:02;;;;;;;14.13;9.88;;;;;;;9.67;95.25;101021.19;5010257;28;20038;-70
2021/11/20 02:38:38;;;;;;;13.98;11.18;;;;;;;9.59;95.67;101014.69;4992106;28;20050;-69
2021/11/20 02:41:04;;;;;;;12.38;10.52;;;;;;;9.69;94.46;101013.03;5010034;28;20036;-70
2021/11/20 02:43:34;;;;;;;12.80;9.77;;;;;;;9.67;95.04;101015.00;5008495;28;20033;-70
2021/11/20 02:46:01;;;;;;;14.48;9.90;;;;;;;9.67;95.04;101006.97;5010177;28;20116;-70
2021/11/20 02:48:27;;;;;;;14.25;11.18;;;;;;;9.68;94.58;101012.22;5009985;28;20030;-70
2021/11/20 02:51:03;;;;;;;12.45;9.68;;;;;;;9.70;94.16;100994.19;5009792;28;20113;-71
2021/11/20 02:53:36;;;;;;;12.70;10.13;;;;;;;9.80;93.64;101000.56;5009953;28;20486;-70
2021/11/20 02:56:05;;;;;;;12.30;10.18;;;;;;;9.82;93.86;101005.81;5009741;28;20029;-71
2021/11/20 02:58:31;;;;;;;12.20;10.15;;;;;;;9.79;92.85;100990.84;5009567;28;20022;-70
2021/11/20 03:01:04;;;;;;;13.07;10.38;;;;;;;9.80;93.91;101003.25;5009721;28;20279;-70
2021/11/20 03:03:30;;;;;;;12.30;9.77;;;;;;;9.86;93.43;100993.94;5013163;28;20026;-70
2021/11/20 03:05:55;;;;;;;12.57;10.05;;;;;;;9.80;93.33;101000.56;5014059;28;20087;-71
2021/11/20 03:08:21;;;;;;;12.23;10.23;;;;;;;9.81;93.64;100993.41;5014191;28;20021;-71
2021/11/20 03:10:47;;;;;;;12.32;10.40;;;;;;;9.85;92.94;100990.38;5013769;28;20087;-71
2021/11/20 03:13:15;;;;;;;12.02;10.15;;;;;;;9.85;93.20;100982.34;5014014;28;20041;-70
2021/11/20 03:15:40;;;;;;;12.57;10.20;;;;;;;9.92;92.58;100988.09;5013572;28;20057;-70
2021/11/20 03:18:07;;;;;;;12.10;9.70;;;;;;;9.88;92.86;100997.34;5013468;28;20064;-71
2021/11/20 03:20:33;;;;;;;11.80;10.20;;;;;;;9.89;92.72;100991.00;5012023;28;20390;-70
2021/11/20 03:23:03;;;;;;;12.82;9.40;;;;;;;9.93;92.29;100996.03;5013862;28;20021;-70
2021/11/20 03:25:29;;;;;;;12.57;10.55;;;;;;;9.90;92.41;101000.78;5013944;28;20474;-71
2021/11/20 03:27:54;;;;;;;12.98;9.32;;;;;;;9.86;92.77;100992.09;5013539;28;20087;-71
2021/11/20 03:30:20;;;;;;;12.50;10.25;;;;;;;9.92;92.12;100994.31;5013340;28;20038;-71
2021/11/20 03:32:46;;;;;;;12.50;9.68;;;;;;;9.81;92.65;100986.22;5013391;28;20063;-71
2021/11/20 03:35:13;;;;;;;13.23;10.63;;;;;;;9.87;92.34;100982.25;5014074;28;20044;-71
2021/11/20 03:37:39;;;;;;;12.20;9.32;;;;;;;9.83;92.47;100984.28;5013336;28;20045;-69
2021/11/20 03:40:08;;;;;;;14.00;10.05;;;;;;;9.88;92.41;100991.97;5013494;28;20045;-72
2021/11/20 03:42:33;;;;;;;13.27;10.23;;;;;;;9.84;91.80;100986.00;4995382;28;20099;-71
2021/11/20 03:44:59;;;;;;;10.63;9.20;;;;;;;9.74;92.26;100984.13;4995443;28;20112;-70
2021/11/20 03:47:25;;;;;;;13.80;10.00;;;;;;;9.77;92.16;100987.41;5013200;28;20033;-70
2021/11/20 03:49:50;;;;;;;11.68;9.80;;;;;;;9.78;92.06;100978.41;5012894;28;20034;-70
2021/11/20 03:52:16;;;;;;;14.25;10.05;;;;;;;9.74;91.88;100976.91;5013120;28;20103;-70
2021/11/20 03:54:44;;;;;;;12.25;9.88;;;;;;;9.67;92.40;100981.03;5012666;28;20112;-71
2021/11/20 03:57:09;;;;;;;13.45;10.02;;;;;;;9.66;92.85;100986.47;5013191;28;20029;-70
2021/11/20 03:59:36;;;;;;;12.57;10.32;;;;;;;9.48;92.94;100969.09;5012919;28;20402;-71
2021/11/20 04:02:02;;;;;;;16.63;10.75;;;;;;;9.54;93.26;100993.59;5013283;28;20473;-71
2021/11/20 04:04:28;;;;;;;15.20;10.68;;;;;;;9.45;92.85;100990.75;5011406;28;20506;-70
2021/11/20 04:06:54;;;;;;;14.63;11.13;;;;;;;9.50;93.34;100993.94;5012655;28;20022;-70
2021/11/20 04:09:19;;;;;;;15.52;10.48;;;;;;;9.44;93.17;100997.06;5012948;28;20036;-70
2021/11/20 04:11:47;;;;;;;19.02;12.23;;;;;;;9.43;93.22;100998.88;5012464;28;20479;-71
2021/11/20 04:14:15;;;;;;;14.25;10.00;;;;;;;9.44;92.93;100997.06;5011399;28;20026;-70
2021/11/20 04:16:41;;;;;;;12.27;9.57;;;;;;;9.36;92.82;100984.25;5012932;28;20109;-71
2021/11/20 04:19:07;;;;;;;12.52;10.02;;;;;;;9.31;93.25;100994.41;5011581;28;20092;-70
2021/11/20 04:21:33;;;;;;;14.35;9.77;;;;;;;9.28;93.69;100997.31;5012361;28;20052;-71
2021/11/20 04:24:00;;;;;;;11.65;9.65;;;;;;;9.19;93.83;100998.81;5012692;28;20101;-70
2021/11/20 04:26:27;;;;;;;15.25;10.25;;;;;;;9.15;94.58;100997.34;5012492;28;20026;-71
2021/11/20 04:28:53;;;;;;;11.80;8.85;;;;;;;9.04;94.58;100989.22;5012189;28;20061;-69
2021/11/20 04:31:20;;;;;;;13.63;9.77;;;;;;;9.15;94.33;100991.13;5010858;28;20038;-70
2021/11/20 04:33:47;;;;;;;11.48;9.05;;;;;;;9.10;94.67;101002.16;4994229;28;20034;-71
2021/11/20 04:36:13;;;;;;;11.88;9.52;;;;;;;9.06;94.52;100997.97;5012268;28;20059;-71
2021/11/20 04:38:39;;;;;;;11.32;9.05;;;;;;;8.98;95.31;101003.03;4987493;28;20150;-71
2021/11/20 04:41:05;;;;;;;12.52;8.68;;;;;;;8.94;95.45;100995.31;4972933;28;20106;-71
2021/11/20 04:43:31;;;;;;;11.23;9.48;;;;;;;8.96;95.85;100996.06;4973013;28;20071;-70
2021/11/20 04:45:56;;;;;;;12.98;9.15;;;;;;;8.92;95.08;100990.09;4971643;28;20062;-71
2021/11/20 04:48:22;;;;;;;12.63;9.07;;;;;;;8.96;95.11;100988.91;4987811;28;20033;-71
2021/11/20 04:50:49;;;;;;;14.15;9.43;;;;;;;8.90;95.19;100985.81;4987571;28;20734;-69
2021/11/20 04:53:16;;;;;;;13.93;9.77;;;;;;;9.02;94.79;100992.94;4972991;28;20454;-70
2021/11/20 04:55:42;;;;;;;14.18;9.25;;;;;;;8.96;94.86;100991.56;4972462;28;20053;-71
2021/11/20 04:58:08;;;;;;;12.43;9.38;;;;;;;8.90;95.39;101009.88;4972732;28;20026;-70
2021/11/20 05:00:40;;;;;;;10.95;7.90;;;;;;;8.87;95.08;101004.75;4987408;28;20026;-72
2021/11/20 05:03:07;;;;;;;10.43;7.75;;;;;;;8.87;95.80;101013.59;4971386;28;20395;-71
2021/11/20 05:05:39;;;;;;;12.73;8.85;;;;;;;8.90;95.17;101010.72;4987702;28;20365;-71
2021/11/20 05:08:05;;;;;;;11.02;8.55;;;;;;;8.79;96.07;101012.44;4972707;28;20379;-70
2021/11/20 05:10:32;;;;;;;13.45;9.88;;;;;;;8.70;96.41;100997.03;4972410;28;20035;-69
2021/11/20 05:12:58;;;;;;;13.05;8.77;;;;;;;8.65;96.82;101007.19;4972447;28;20038;-70
2021/11/20 05:15:25;;;;;;;11.60;8.32;;;;;;;8.70;96.07;100997.03;4972554;28;20030;-71
2021/11/20 05:17:50;;;;;;;14.23;8.68;;;;;;;8.76;95.75;100999.28;4972042;28;20043;-71
2021/11/20 05:20:16;;;;;;;13.77;8.82;;;;;;;8.62;96.33;100989.56;4987215;28;20038;-70
2021/11/20 05:22:42;;;;;;;13.02;8.93;;;;;;;8.62;96.31;100999.38;4972241;28;20081;-70
2021/11/20 05:25:10;;;;;;;13.65;8.98;;;;;;;8.57;96.67;100991.69;4986304;28;20467;-70
2021/11/20 05:27:36;;;;;;;11.07;8.25;;;;;;;8.54;96.18;100988.34;4972137;28;20106;-70
2021/11/20 05:30:08;;;;;;;10.40;7.53;;;;;;;8.52;96.28;100992.97;4972375;28;20043;-71
2021/11/20 05:32:34;;;;;;;12.20;8.10;;;;;;;8.50;96.57;100981.50;4969249;28;20045;-70
2021/11/20 05:35:00;;;;;;;11.27;7.75;;;;;;;8.42;97.24;100989.22;4972257;28;20494;-70
2021/11/20 05:37:25;;;;;;;9.43;7.43;;;;;;;8.35;97.43;100979.91;4977115;28;20035;-70
2021/11/20 05:39:51;;;;;;;9.13;7.53;;;;;;;8.37;97.05;100985.97;5010940;28;20459;-70
2021/11/20 05:42:17;;;;;;;10.23;8.10;;;;;;;8.37;97.00;100994.00;5011445;28;20017;-71
2021/11/20 05:44:43;;;;;;;9.90;7.72;;;;;;;8.33;97.32;100993.38;5010750;28;20037;-69
2021/11/20 05:47:08;;;;;;;11.48;8.52;;;;;;;8.27;97.17;100992.91;5009612;28;20371;-70
2021/11/20 05:49:37;;;;;;;11.27;8.45;;;;;;;8.28;96.96;101005.31;5009336;28;20048;-70
2021/11/20 05:52:05;;;;;;;13.05;9.25;;;;;;;8.23;97.44;101005.63;5010742;28;20062;-71
2021/11/20 05:54:31;;;;;;;14.15;9.77;;;;;;;8.18;97.30;101010.38;5010937;28;20026;-70
2021/11/20 05:56:56;;;;;;;13.13;9.35;;;;;;;8.25;97.35;101021.53;5010929;28;20528;-70
2021/11/20 05:59:23;;;;;;;13.43;9.52;;;;;;;8.28;97.30;101018.66;5010794;28;20112;-71
2021/11/20 06:01:50;;;;;;;12.13;8.90;;;;;;;8.24;98.11;101028.72;4992779;28;20414;-70
2021/11/20 06:04:16;;;;;;;10.45;8.25;;;;;;;8.20;97.85;101029.84;5010699;28;20033;-70
2021/11/20 06:06:42;;;;;;;12.13;8.73;;;;;;;8.19;98.28;101025.44;5010118;28;20041;-69
2021/11/20 06:09:11;;;;;;;11.98;8.73;;;;;;;8.16;97.36;101017.63;5010403;28;20038;-71
2021/11/20 06:11:37;;;;;;;14.38;9.55;;;;;;;8.20;97.44;101029.00;5010275;28;20033;-70
2021/11/20 06:14:04;;;;;;;13.93;9.32;;;;;;;8.27;97.40;101038.34;5010635;28;20038;-71
2021/11/20 06:16:30;;;;;;;15.30;9.25;;;;;;;8.21;97.77;101033.38;5010600;28;20097;-71
2021/11/20 06:18:55;;;;;;;11.63;8.15;;;;;;;8.19;97.80;101029.97;5008843;28;20486;-70
2021/11/20 06:21:21;;;;;;;9.80;7.85;;;;;;;8.20;97.96;101031.66;5010086;28;20026;-71
2021/11/20 06:23:46;;;;;;;10.63;8.32;;;;;;;8.12;98.50;101026.81;4992678;28;20577;-69
2021/11/20 06:26:13;;;;;;;9.57;7.70;;;;;;;8.19;98.32;101036.13;5010134;28;20026;-71
2021/11/20 06:28:38;;;;;;;10.20;8.18;;;;;;;8.29;97.86;101034.59;5009940;28;20487;-68
2021/11/20 06:31:05;;;;;;;11.45;8.45;;;;;;;8.34;98.15;101023.59;5010012;28;20041;-68
2021/11/20 06:33:32;;;;;;;11.55;7.78;;;;;;;8.32;98.37;101034.38;5009992;28;20042;-67
2021/11/20 06:35:58;;;;;;;12.10;8.27;;;;;;;8.34;98.03;101034.28;5009837;28;20073;-68
2021/11/20 06:38:24;;;;;;;10.35;7.95;;;;;;;8.22;98.74;101013.75;5009554;28;20151;-68
2021/11/20 06:40:52;;;;;;;10.00;7.85;;;;;;;8.37;98.77;101036.75;5009731;28;20112;-67
2021/11/20 06:43:21;;;;;;;10.77;8.32;;;;;;;8.47;97.64;101025.34;4992202;28;20088;-67
2021/11/20 06:45:49;;;;;;;11.25;8.55;;;;;;;8.42;98.20;101029.31;5009708;28;20025;-68
2021/11/20 06:48:16;;;;;;;10.57;7.90;;;;;;;8.49;97.77;101041.28;5008375;28;20025;-68
2021/11/20 06:50:43;;;;;;;11.02;8.07;;;;;;;8.56;97.52;101047.94;5009402;28;20522;-68
2021/11/20 06:53:12;;;;;;;12.48;8.65;;;;;;;8.51;98.30;101040.22;5009872;28;20061;-68
2021/11/20 06:55:39;;;;;;;11.45;8.35;;;;;;;8.48;98.11;101034.22;5009385;28;20022;-68
2021/11/20 07:00:38;;;;;;;9.75;7.45;;;;;;;8.65;97.71;101056.16;5009440;28;21092;-66
2021/11/20 07:03:11;;;;;;;10.63;7.55;;;;;;;8.77;97.17;101058.00;5009657;28;20034;-68
2021/11/20 07:05:41;;;;;;;11.13;7.68;;;;;;;8.71;97.23;101042.38;5009499;28;20430;-68
2021/11/20 07:08:08;;;;;;;10.25;7.97;;;;;;;8.76;97.14;101047.41;5008326;28;20143;-68
2021/11/20 07:10:34;;;;;;;10.48;8.07;;;;;;;8.93;96.61;101050.63;5009538;28;20049;-68
2021/11/20 07:13:01;;;;;;;8.73;7.18;;;;;;;9.00;96.52;101046.56;5009743;28;20029;-67
2021/11/20 07:15:27;;;;;;;10.13;7.50;;;;;;;8.96;96.69;101047.75;5009298;28;20478;-67
2021/11/20 07:17:54;;;;;;;11.40;8.20;;;;;;;8.98;97.18;101055.66;5009179;28;20033;-67
2021/11/20 07:20:22;;;;;;;11.35;7.38;;;;;;;9.14;96.03;101056.31;5009374;28;20108;-66
2021/11/20 07:22:49;;;;;;;11.73;8.05;;;;;;;9.08;95.99;101059.41;4991516;28;20037;-68
2021/11/20 07:25:15;;;;;;;12.07;7.82;;;;;;;9.19;95.53;101054.16;5009376;28;20505;-67
2021/11/20 07:27:41;;;;;;;10.77;7.82;;;;;;;9.35;94.54;101052.09;4991547;28;20037;-67
2021/11/20 07:30:08;;;;;;;10.73;7.53;;;;;;;9.42;94.20;101058.75;5009353;28;20026;-67
2021/11/20 07:32:34;;;;;;;11.32;7.93;;;;;;;9.40;94.64;101068.72;5009233;28;20100;-67
2021/11/20 07:34:59;;;;;;;12.57;8.32;;;;;;;9.42;94.39;101074.81;5009323;28;20046;-67
2021/11/20 07:37:25;;;;;;;13.30;8.32;;;;;;;9.39;94.37;101061.66;4991483;28;20030;-67
2021/11/20 07:39:50;;;;;;;12.18;8.13;;;;;;;9.43;94.35;101057.78;5009069;28;20394;-68
2021/11/20 07:42:16;;;;;;;11.15;8.23;;;;;;;9.45;94.53;101066.59;5009203;28;20072;-67
2021/11/20 07:44:42;;;;;;;11.55;7.55;;;;;;;9.57;93.12;101060.31;5007653;28;20025;-67
2021/11/20 07:47:08;;;;;;;9.98;7.15;;;;;;;9.71;91.25;101062.03;5009409;28;20117;-68
2021/11/20 07:49:33;;;;;;;8.63;7.03;;;;;;;9.73;91.22;101052.03;5012584;28;20030;-67
2021/11/20 07:51:59;;;;;;;14.95;6.85;;;;;;;9.84;90.44;101065.50;5012824;28;20096;-68
2021/11/20 07:54:24;;;;;;;9.40;7.28;;;;;;;9.91;90.04;101067.63;5013050;28;20310;-68
2021/11/20 07:56:50;;;;;;;9.40;6.78;;;;;;;9.98;89.36;101065.34;5012784;28;20053;-69
2021/11/20 07:59:17;;;;;;;9.80;7.47;;;;;;;10.00;89.11;101064.25;5012578;28;20041;-67
2021/11/20 08:01:44;;;;;;;13.48;8.77;;;;;;;10.09;88.76;101060.09;5012522;28;20363;-66
2021/11/20 08:04:10;;;;;;;13.25;8.75;;;;;;;10.23;86.35;101052.75;5012745;28;20037;-68
2021/11/20 08:06:37;;;;;;;14.05;8.93;;;;;;;10.35;86.24;101062.53;5012468;28;20501;-67
2021/11/20 08:09:05;;;;;;;12.00;7.07;;;;;;;10.49;84.86;101056.16;5012703;28;20441;-68
2021/11/20 08:11:32;;;;;;;12.15;8.05;;;;;;;10.52;84.91;101061.28;5012296;28;20069;-68
2021/11/20 08:13:58;;;;;;;12.45;8.63;;;;;;;10.45;85.31;101062.72;5012254;28;20037;-68
2021/11/20 08:16:25;;;;;;;11.00;7.25;;;;;;;10.49;84.79;101064.19;5010060;28;20022;-67
2021/11/20 08:18:51;;;;;;;15.43;8.75;;;;;;;10.60;83.48;101053.50;5012020;28;20473;-68
2021/11/20 08:21:16;;;;;;;12.18;7.97;;;;;;;10.73;82.13;101060.50;5012273;28;20034;-68
2021/11/20 08:23:42;;;;;;;13.73;8.45;;;;;;;10.75;82.43;101069.28;5010800;28;20073;-68
2021/11/20 08:26:09;;;;;;;11.25;7.53;;;;;;;10.74;83.19;101070.25;4994310;28;20135;-67
2021/11/20 08:28:36;;;;;;;11.05;7.85;;;;;;;10.76;83.33;101064.75;5011492;28;20442;-68
2021/11/20 08:31:01;;;;;;;10.10;7.65;;;;;;;10.74;83.65;101061.34;4995396;28;20022;-68
2021/11/20 08:33:27;;;;;;;12.30;7.95;;;;;;;10.75;83.43;101065.75;4993108;28;20029;-66
2021/11/20 08:35:55;;;;;;;12.10;8.18;;;;;;;10.94;81.76;101058.81;5010517;28;20128;-67
2021/11/20 08:38:20;;;;;;;12.77;8.27;;;;;;;10.99;81.36;101067.38;5010219;28;20819;-67
2021/11/20 08:40:47;;;;;;;10.10;7.38;;;;;;;10.93;82.06;101073.22;4992727;28;20128;-67
2021/11/20 08:43:13;;;;;;;10.88;7.38;;;;;;;11.04;80.29;101073.25;5010914;28;20025;-68
2021/11/20 08:45:43;;;;;;;10.80;7.35;;;;;;;11.12;79.89;101073.50;4992996;28;20530;-68
2021/11/20 08:48:11;;;;;;;11.00;7.90;;;;;;;11.10;80.30;101066.56;4992358;28;20025;-68
2021/11/20 08:50:42;;;;;;;11.32;7.55;;;;;;;11.19;79.89;101049.72;5009347;28;20466;-67
2021/11/20 08:53:08;;;;;;;10.68;7.72;;;;;;;11.13;80.30;101051.03;5009617;28;20056;-69
2021/11/20 08:55:36;;;;;;;12.32;8.50;;;;;;;11.32;78.81;101062.06;5009724;28;20033;-68
2021/11/20 08:58:01;;;;;;;10.93;7.80;;;;;;;11.35;78.62;101061.81;5010339;28;20026;-67
2021/11/20 09:00:47;;;;;;;13.90;8.45;;;;;;;11.43;78.95;101063.91;5010320;28;20028;-68
2021/11/20 09:03:16;;;;;;;10.93;6.82;;;;;;;11.52;77.54;101065.84;4992453;28;20041;-67
2021/11/20 09:06:13;;;;;;;10.75;8.05;;;;;;;11.46;78.55;101077.94;5010438;28;20754;-67
2021/11/20 09:08:46;;;;;;;9.05;6.63;;;;;;;11.65;76.20;101073.81;5001405;28;20037;-67
2021/11/20 09:11:35;;;;;;;10.45;6.85;;;;;;;11.58;77.13;101071.56;5008947;28;20033;-67
2021/11/20 09:14:08;;;;;;;9.05;6.95;;;;;;;11.60;76.74;101076.81;4988926;28;20026;-68
2021/11/20 09:16:34;;;;;;;11.27;7.10;;;;;;;11.61;76.83;101065.13;5009895;28;20519;-68
2021/11/20 09:19:00;;;;;;;12.95;8.05;;;;;;;11.76;75.92;101071.09;5011106;28;20041;-68
2021/11/20 09:21:26;;;;;;;24.73;18.67;;;;;;;11.72;76.81;101073.19;4993535;28;20033;-66
2021/11/20 09:23:53;;;;;;;12.77;7.95;;;;;;;11.86;75.26;101064.03;4993326;28;20030;-69
2021/11/20 09:26:20;;;;;;;15.13;10.05;;;;;;;11.83;75.44;101075.03;5009745;28;20106;-68
2021/11/20 09:28:46;;;;;;;15.45;11.38;;;;;;;11.78;75.89;101067.34;5010169;28;20041;-68
2021/11/20 09:31:12;;;;;;;11.95;9.15;;;;;;;11.87;75.29;101068.41;5011004;28;20034;-68
2021/11/20 09:33:39;;;;;;;14.30;10.75;;;;;;;11.90;74.83;101066.31;5011033;28;20041;-67
2021/11/20 09:36:06;;;;;;;29.77;20.15;;;;;;;11.85;75.39;101048.84;5011081;28;20049;-67
2021/11/20 09:38:33;;;;;;;23.70;14.57;;;;;;;11.85;75.44;101051.53;5010562;28;20041;-67
2021/11/20 09:41:23;;;;;;;28.95;16.13;;;;;;;11.88;75.78;101045.94;5010625;28;20042;-67
2021/11/20 09:43:57;;;;;;;18.08;11.02;;;;;;;11.90;75.52;101052.03;5010741;28;20037;-67
2021/11/20 09:46:34;;;;;;;14.10;9.40;;;;;;;11.92;75.34;101048.25;5010768;28;20487;-66
2021/11/20 09:49:15;;;;;;;11.90;7.78;;;;;;;12.03;74.00;101039.31;5010676;28;20061;-67
2021/11/20 09:51:50;;;;;;;8.73;7.35;;;;;;;12.10;73.01;101033.28;5010292;28;20459;-68
2021/11/20 09:54:18;;;;;;;11.73;7.07;;;;;;;12.16;72.98;101046.22;5010632;28;20034;-68
2021/11/20 09:56:52;;;;;;;11.20;7.32;;;;;;;12.24;72.49;101042.88;5010329;28;20030;-68
2021/11/20 09:59:27;;;;;;;12.23;6.90;;;;;;;12.39;71.21;101044.31;5010533;28;20030;-67
2021/11/20 10:02:31;;;;;;;10.75;7.05;;;;;;;12.49;70.92;101039.88;4992600;28;20068;-66
2021/11/20 10:05:08;;;;;;;9.25;6.90;;;;;;;12.44;71.75;101050.13;4986176;28;20069;-68
2021/11/20 10:07:40;;;;;;;11.43;6.82;;;;;;;12.53;70.87;101044.84;5010318;28;20494;-68
2021/11/20 10:10:14;;;;;;;13.23;8.40;;;;;;;12.57;70.55;101035.53;5010586;28;20053;-71
2021/11/20 10:13:11;;;;;;;9.15;6.65;;;;;;;12.59;69.58;101020.13;5010297;28;20037;-71
2021/11/20 10:16:07;;;;;;;10.27;7.65;;;;;;;12.67;70.22;101024.84;5008498;28;20029;-72
2021/11/20 10:19:10;;;;;;;9.15;6.20;;;;;;;12.63;70.82;101029.63;5010817;28;20084;-71
2021/11/20 10:21:42;;;;;;;11.02;7.38;;;;;;;12.68;70.19;101034.63;5010669;28;20026;-70
2021/11/20 10:24:24;;;;;;;29.05;14.57;;;;;;;12.69;70.99;101028.25;5010550;28;20041;-71
2021/11/20 10:27:23;;;;;;;14.43;9.30;;;;;;;12.72;71.16;101022.63;5008986;28;20079;-72
2021/11/20 10:30:07;;;;;;;13.30;7.40;;;;;;;12.86;69.54;101027.66;5010301;28;20036;-71
2021/11/20 10:32:36;;;;;;;9.88;7.00;;;;;;;12.85;69.53;101026.81;4992789;28;20064;-71
2021/11/20 10:35:24;;;;;;;9.95;7.10;;;;;;;12.85;70.19;101018.75;5010523;28;20042;-71
2021/11/20 10:38:11;;;;;;;9.77;7.03;;;;;;;12.87;69.49;101021.31;5010087;28;20077;-70
2021/11/20 10:41:06;;;;;;;9.00;7.20;;;;;;;13.18;67.04;101023.94;4992284;28;20037;-71
2021/11/20 10:43:40;;;;;;;9.38;6.97;;;;;;;13.17;67.61;101015.97;5005115;28;20552;-71
2021/11/20 10:46:08;;;;;;;;;;;;;;;13.11;68.38;101014.69;5009547;28;20176;-72
2021/11/20 10:48:39;;;;;;;18.63;9.48;;;;;;;13.09;68.49;101013.94;5010267;28;19925;-72
2021/11/20 10:51:29;;;;;;;13.70;8.82;;;;;;;13.06;68.58;101019.59;5010121;28;20033;-72
2021/11/20 10:53:54;;;;;;;10.05;6.90;;;;;;;13.15;68.08;101021.50;5010072;28;20370;-71
2021/11/20 10:56:23;;;;;;;8.65;6.13;;;;;;;13.19;68.15;101014.00;5009852;28;20133;-72
2021/11/20 10:59:33;;;;;;;7.63;5.82;;;;;;;13.26;68.13;101007.09;5010171;28;20034;-71
2021/11/20 11:02:07;;;;;;;13.52;6.88;;;;;;;13.30;67.41;101009.38;5006826;28;20034;-72
2021/11/20 11:04:56;;;;;;;7.90;6.70;;;;;;;13.28;67.66;101005.97;5010008;28;20034;-71
2021/11/20 11:07:33;;;;;;;10.25;6.80;;;;;;;13.34;67.78;101001.88;4992162;28;20037;-72
2021/11/20 11:10:03;;;;;;;10.32;6.45;;;;;;;13.42;67.32;101004.75;5008376;28;20087;-72
2021/11/20 11:12:38;;;;;;;9.40;6.93;;;;;;;13.53;66.28;101004.66;5009719;28;20418;-72
2021/11/20 11:15:39;;;;;;;11.45;8.20;;;;;;;13.51;66.28;100996.69;5007554;28;20040;-72
2021/11/20 11:18:31;;;;;;;9.40;7.03;;;;;;;13.51;66.46;101001.22;5009610;28;20025;-71
2021/11/20 11:21:03;;;;;;;10.40;6.30;;;;;;;13.52;66.86;100998.38;5009534;28;20018;-72
2021/11/20 11:24:06;;;;;;;13.60;7.68;;;;;;;13.57;66.03;100996.16;5011797;28;20045;-71
2021/11/20 11:26:39;;;;;;;13.15;7.65;;;;;;;13.55;66.57;100995.41;5012911;28;20536;-72
2021/11/20 11:29:24;;;;;;;11.95;7.93;;;;;;;13.56;66.34;100994.44;5013959;28;20037;-72
2021/11/20 11:31:52;;;;;;;12.23;7.88;;;;;;;13.70;65.24;100991.34;5013148;28;20033;-71
2021/11/20 11:34:33;;;;;;;9.90;6.50;;;;;;;13.75;65.31;100990.94;5014141;28;20035;-72
2021/11/20 11:37:26;;;;;;;6.78;5.88;;;;;;;13.68;65.37;100979.84;5011223;28;20037;-72
2021/11/20 11:40:30;;;;;;;8.27;6.32;;;;;;;13.73;65.58;100986.69;4997550;28;20050;-72